Time;durP1;ratioP1;P1;durP2;ratioP2;P2;SDS_P1;SDS_P2;PMS_P1;PMS_P2;Temp;Humidity;BMP_temperature;BMP_pressure;BME280_temperature;BME280_humidity;BME280_pressure;Samples;Min_cycle;Max_cycle;Signal;HPM_P1;HPM_P2
2023/06/01 00:01:08;;;;;;;4.00;2.70;;;;;;;22.13;54.64;96412.31;5034341;28;20021;-34
2023/06/01 00:03:36;;;;;;;4.15;2.70;;;;;;;22.27;54.07;96419.56;5034281;28;20018;-34
2023/06/01 00:06:02;;;;;;;3.22;2.60;;;;;;;22.26;54.08;96423.56;5034092;28;20044;-34
2023/06/01 00:08:27;;;;;;;3.75;2.38;;;;;;;22.05;54.59;96420.31;5026879;28;20465;-34
2023/06/01 00:10:53;;;;;;;6.13;2.53;;;;;;;22.15;54.79;96418.06;5041455;28;20019;-34
2023/06/01 00:13:19;;;;;;;5.15;2.50;;;;;;;22.17;54.33;96415.53;5041164;28;20029;-34
2023/06/01 00:15:44;;;;;;;4.57;2.80;;;;;;;22.05;54.60;96408.53;5040971;28;20039;-35
2023/06/01 00:18:12;;;;;;;4.50;2.88;;;;;;;22.00;55.23;96412.81;5033698;28;20025;-34
2023/06/01 00:20:38;;;;;;;3.35;2.55;;;;;;;21.92;55.43;96405.50;5040547;28;20025;-34
2023/06/01 00:23:04;;;;;;;6.25;3.05;;;;;;;22.23;54.64;96412.78;5033863;28;20018;-34
2023/06/01 00:25:29;;;;;;;3.88;2.80;;;;;;;22.25;54.92;96404.75;5034007;28;20036;-34
2023/06/01 00:27:56;;;;;;;4.03;2.58;;;;;;;21.94;55.38;96414.03;5033354;28;20024;-34
2023/06/01 00:30:21;;;;;;;3.47;2.75;;;;;;;22.22;54.51;96412.03;5045436;28;20029;-34
2023/06/01 00:32:47;;;;;;;3.50;2.65;;;;;;;22.24;54.68;96417.81;5041006;28;20062;-34
2023/06/01 00:35:12;;;;;;;3.70;2.55;;;;;;;22.18;54.89;96414.28;5033716;28;20034;-34
2023/06/01 00:37:37;;;;;;;5.72;2.72;;;;;;;22.18;55.31;96422.59;5032061;28;20018;-34
2023/06/01 00:40:03;;;;;;;3.55;2.60;;;;;;;22.00;55.20;96409.28;5040050;28;20017;-34
2023/06/01 00:42:29;;;;;;;4.75;2.70;;;;;;;22.16;54.69;96414.78;5033473;28;20531;-34
2023/06/01 00:44:54;;;;;;;4.30;2.63;;;;;;;22.02;55.01;96412.28;5044705;28;20029;-34
2023/06/01 00:47:20;;;;;;;4.20;2.58;;;;;;;22.13;54.70;96406.78;5050348;28;20029;-34
2023/06/01 00:49:46;;;;;;;4.75;2.95;;;;;;;22.15;54.63;96405.00;5039751;28;20072;-34
2023/06/01 00:52:13;;;;;;;5.45;2.55;;;;;;;22.07;54.94;96408.78;5037458;28;20021;-34
2023/06/01 00:54:38;;;;;;;4.07;2.50;;;;;;;22.11;55.13;96412.06;5037343;28;20524;-34
2023/06/01 00:57:05;;;;;;;3.45;2.72;;;;;;;21.91;55.37;96415.78;5037615;28;20033;-34
2023/06/01 00:59:31;;;;;;;3.25;2.53;;;;;;;22.11;54.84;96406.53;5037335;28;20029;-34
2023/06/01 01:01:57;;;;;;;3.50;2.65;;;;;;;22.28;54.39;96415.53;5044470;28;20026;-36
2023/06/01 01:04:25;;;;;;;5.70;3.00;;;;;;;22.10;55.17;96413.31;5045542;28;20028;-34
2023/06/01 01:07:09;;;;;;;3.88;2.70;;;;;;;22.20;54.76;96412.53;5037059;28;20055;-34
2023/06/01 01:09:53;;;;;;;4.25;2.58;;;;;;;22.15;55.06;96418.81;5035162;28;20078;-34
2023/06/01 01:12:54;;;;;;;3.28;2.75;;;;;;;22.02;55.07;96409.53;5037844;28;20480;-36
2023/06/01 01:15:49;;;;;;;4.47;2.50;;;;;;;22.06;55.31;96415.56;5037666;28;20068;-34
2023/06/01 01:18:21;;;;;;;3.45;3.05;;;;;;;22.11;54.95;96409.28;5044362;28;20032;-34
2023/06/01 01:20:57;;;;;;;3.33;2.53;;;;;;;22.02;55.35;96413.03;5044131;28;20108;-34
2023/06/01 01:23:38;;;;;;;4.57;2.92;;;;;;;21.88;55.84;96412.00;5035809;28;20384;-34
2023/06/01 01:26:12;;;;;;;4.38;2.80;;;;;;;22.01;55.13;96408.78;5036959;28;20512;-34
2023/06/01 01:28:50;;;;;;;4.05;2.83;;;;;;;22.06;55.42;96416.31;5044763;28;20048;-34
2023/06/01 01:31:22;;;;;;;6.45;3.03;;;;;;;22.11;55.22;96415.56;5036830;28;20100;-34
2023/06/01 01:33:48;;;;;;;4.38;3.00;;;;;;;22.04;55.28;96415.31;5036838;28;20021;-34
2023/06/01 01:36:16;;;;;;;3.80;2.50;;;;;;;22.16;55.16;96417.56;5042529;28;20087;-34
2023/06/01 01:38:41;;;;;;;2.63;2.33;;;;;;;22.11;55.37;96415.56;5038363;28;20108;-34
2023/06/01 01:41:07;;;;;;;3.05;2.47;;;;;;;22.02;55.54;96410.28;5036478;28;20104;-34
2023/06/01 01:43:32;;;;;;;5.93;2.65;;;;;;;22.11;55.53;96412.06;5036364;28;20116;-34
2023/06/01 01:46:27;;;;;;;4.45;2.90;;;;;;;22.04;56.01;96404.25;5037190;28;20107;-34
2023/06/01 01:49:17;;;;;;;4.55;2.50;;;;;;;22.10;55.56;96405.78;5037499;28;20025;-34
2023/06/01 01:52:02;;;;;;;3.45;2.60;;;;;;;21.97;56.15;96401.97;5045912;28;20032;-34
2023/06/01 01:54:28;;;;;;;3.72;2.90;;;;;;;22.16;55.31;96398.22;5041184;28;20132;-34
2023/06/01 01:56:57;;;;;;;3.42;2.50;;;;;;;22.11;55.37;96409.28;5035313;28;20108;-34
2023/06/01 01:59:23;;;;;;;3.03;2.72;;;;;;;22.09;55.47;96406.28;5036360;28;20108;-34
2023/06/01 02:01:49;;;;;;;3.92;2.70;;;;;;;22.02;55.60;96406.75;5036379;28;20426;-34
2023/06/01 02:04:14;;;;;;;2.92;2.63;;;;;;;22.07;55.16;96406.78;5036552;28;20021;-35
2023/06/01 02:06:40;;;;;;;3.25;2.40;;;;;;;22.05;55.36;96405.75;5043440;28;20100;-34
2023/06/01 02:09:08;;;;;;;4.88;2.50;;;;;;;21.97;55.19;96407.50;5043128;28;20476;-34
2023/06/01 02:11:36;;;;;;;3.92;2.53;;;;;;;22.10;54.83;96402.25;5028987;28;20014;-34
2023/06/01 02:14:02;;;;;;;2.88;2.40;;;;;;;22.17;54.67;96404.50;5036135;28;20032;-34
2023/06/01 02:16:27;;;;;;;4.18;2.60;;;;;;;22.00;55.04;96409.28;5036281;28;20025;-34
2023/06/01 02:18:53;;;;;;;2.88;2.35;;;;;;;21.91;55.50;96406.75;5042942;28;20044;-34
2023/06/01 02:21:19;;;;;;;3.95;2.92;;;;;;;21.99;54.92;96397.50;5035916;28;20064;-34
2023/06/01 02:23:45;;;;;;;3.10;2.45;;;;;;;22.11;54.81;96403.75;5041582;28;20369;-35
2023/06/01 02:26:11;;;;;;;3.22;2.47;;;;;;;21.98;55.46;96403.50;5043057;28;20531;-34
2023/06/01 02:28:38;;;;;;;4.22;2.63;;;;;;;22.05;55.17;96400.25;5036002;28;20558;-34
2023/06/01 02:31:04;;;;;;;3.53;2.47;;;;;;;22.06;54.60;96404.50;5042443;28;20028;-34
2023/06/01 02:33:29;;;;;;;3.95;2.60;;;;;;;21.99;54.98;96400.25;5035965;28;20017;-34
2023/06/01 02:35:55;;;;;;;4.57;2.58;;;;;;;21.98;55.80;96409.00;5031050;28;20092;-34
2023/06/01 02:38:21;;;;;;;2.97;2.50;;;;;;;21.92;55.02;96399.97;5042206;28;20495;-34
2023/06/01 02:40:46;;;;;;;5.18;2.53;;;;;;;21.88;55.46;96400.25;5036250;28;20116;-34
2023/06/01 02:43:12;;;;;;;7.00;2.63;;;;;;;21.83;55.74;96393.44;5041409;28;20115;-34
2023/06/01 02:45:38;;;;;;;2.97;2.47;;;;;;;21.88;56.00;96399.47;5035075;28;20025;-34
2023/06/01 02:48:04;;;;;;;3.85;2.67;;;;;;;21.97;55.77;96396.47;5043174;28;20029;-34
2023/06/01 02:50:29;;;;;;;3.42;2.58;;;;;;;21.83;55.80;96398.97;5035634;28;20056;-34
2023/06/01 02:52:55;;;;;;;3.85;2.15;;;;;;;22.06;55.26;96396.97;5042246;28;20067;-34
2023/06/01 02:55:20;;;;;;;6.07;2.63;;;;;;;21.93;55.10;96405.00;5042688;28;20425;-35
2023/06/01 02:57:46;;;;;;;5.18;2.70;;;;;;;22.00;54.84;96401.00;5042455;28;20025;-36
2023/06/01 03:00:15;;;;;;;6.07;2.75;;;;;;;21.97;55.21;96396.47;5035781;28;20024;-34
2023/06/01 03:02:45;;;;;;;5.93;2.70;;;;;;;21.85;55.43;96402.00;5034910;28;20420;-34
2023/06/01 03:05:14;;;;;;;4.88;2.45;;;;;;;22.05;54.82;96398.22;5035448;28;20025;-34
2023/06/01 03:07:46;;;;;;;3.50;2.63;;;;;;;22.03;54.91;96397.22;5034417;28;20079;-34
2023/06/01 03:10:12;;;;;;;3.42;2.55;;;;;;;21.93;54.92;96398.72;5042851;28;20480;-36
2023/06/01 03:12:38;;;;;;;4.13;2.53;;;;;;;22.00;54.47;96404.53;5041732;28;20026;-34
2023/06/01 03:15:04;;;;;;;3.15;2.60;;;;;;;21.85;55.26;96401.22;5042058;28;20024;-34
2023/06/01 03:17:31;;;;;;;4.25;2.33;;;;;;;21.79;55.27;96403.22;5035187;28;20048;-34
2023/06/01 03:19:57;;;;;;;3.97;2.40;;;;;;;21.92;55.15;96400.72;5035021;28;20459;-34
2023/06/01 03:22:22;;;;;;;4.03;2.47;;;;;;;21.83;54.98;96403.75;5035071;28;20121;-34
2023/06/01 03:24:49;;;;;;;3.42;2.42;;;;;;;21.91;54.71;96399.22;5033589;28;20018;-34
2023/06/01 03:27:19;;;;;;;3.90;2.40;;;;;;;21.98;54.68;96401.47;5041804;28;20029;-34
2023/06/01 03:29:44;;;;;;;4.43;2.38;;;;;;;21.82;55.18;96402.22;5037315;28;20026;-34
2023/06/01 03:32:10;;;;;;;5.10;2.50;;;;;;;21.95;55.08;96410.00;5039359;28;20063;-34
2023/06/01 03:34:36;;;;;;;4.40;2.40;;;;;;;21.97;54.65;96402.75;5041918;28;20021;-34
2023/06/01 03:37:04;;;;;;;3.42;2.78;;;;;;;21.92;55.46;96399.97;5034714;28;20481;-34
2023/06/01 03:39:33;;;;;;;4.25;3.00;;;;;;;21.94;54.94;96402.97;5034149;28;20037;-34
2023/06/01 03:41:59;;;;;;;3.10;2.40;;;;;;;21.99;54.59;96402.28;5041625;28;20018;-34
2023/06/01 03:44:25;;;;;;;3.80;2.50;;;;;;;22.03;54.44;96395.22;5041699;28;20056;-34
2023/06/01 03:46:50;;;;;;;4.78;2.78;;;;;;;21.86;54.65;96399.97;5034106;28;20022;-34
2023/06/01 03:49:16;;;;;;;2.80;2.50;;;;;;;21.88;54.49;96400.97;5034691;28;20033;-34
2023/06/01 03:51:41;;;;;;;3.97;2.58;;;;;;;21.78;54.90;96396.94;5040806;28;20025;-34
2023/06/01 03:54:06;;;;;;;4.72;2.50;;;;;;;21.69;55.02;96402.72;5034192;28;20044;-34
2023/06/01 03:56:32;;;;;;;4.60;2.67;;;;;;;21.76;55.07;96404.25;5033246;28;20048;-34
2023/06/01 03:58:58;;;;;;;3.92;2.65;;;;;;;21.93;54.53;96401.47;5034478;28;20041;-34
2023/06/01 04:01:23;;;;;;;3.28;2.67;;;;;;;21.87;54.61;96407.00;5040682;28;20026;-34
2023/06/01 04:03:49;;;;;;;4.75;2.80;;;;;;;21.99;54.27;96405.78;5041083;28;20020;-34
2023/06/01 04:06:17;;;;;;;3.47;2.33;;;;;;;21.84;54.76;96416.28;5033997;28;20385;-34
2023/06/01 04:08:49;;;;;;;3.72;2.50;;;;;;;21.79;54.91;96414.28;5034383;28;20017;-35
2023/06/01 04:11:17;;;;;;;3.38;2.67;;;;;;;21.77;54.68;96411.25;5034320;28;20033;-35
2023/06/01 04:13:44;;;;;;;4.10;2.53;;;;;;;21.90;54.17;96419.03;5034135;28;20028;-34
2023/06/01 04:16:10;;;;;;;5.05;2.60;;;;;;;21.70;54.90;96407.00;5040714;28;20027;-34
2023/06/01 04:18:36;;;;;;;6.05;3.10;;;;;;;21.80;54.72;96411.00;5037078;28;20032;-34
2023/06/01 04:21:02;;;;;;;3.97;2.47;;;;;;;21.85;54.80;96418.56;5038086;28;20552;-34
2023/06/01 04:23:27;;;;;;;4.25;2.63;;;;;;;21.81;54.57;96418.03;5033657;28;20022;-34
2023/06/01 04:25:53;;;;;;;3.75;2.92;;;;;;;21.83;54.53;96421.06;5033644;28;20112;-34
2023/06/01 04:28:20;;;;;;;4.72;2.63;;;;;;;21.78;54.57;96419.03;5039610;28;20032;-34
2023/06/01 04:30:51;;;;;;;4.72;2.80;;;;;;;21.78;54.91;96419.03;5040483;28;20024;-34
2023/06/01 04:33:17;;;;;;;3.25;2.47;;;;;;;21.81;55.20;96417.28;5040703;28;20029;-34
2023/06/01 04:35:43;;;;;;;4.10;2.60;;;;;;;21.93;54.69;96429.09;5032270;28;20493;-34
2023/06/01 04:38:08;;;;;;;3.78;2.78;;;;;;;21.89;55.05;96426.56;5033702;28;20072;-34
2023/06/01 04:40:34;;;;;;;3.83;2.60;;;;;;;21.99;54.62;96429.88;5032343;28;20481;-34
2023/06/01 04:43:02;;;;;;;5.97;2.90;;;;;;;21.88;54.74;96423.06;5033501;28;20362;-34
2023/06/01 04:45:30;;;;;;;4.07;2.50;;;;;;;21.88;54.89;96421.56;5033699;28;20160;-34
2023/06/01 04:47:57;;;;;;;5.05;2.53;;;;;;;21.81;55.41;96423.56;5035140;28;20384;-34
2023/06/01 04:50:23;;;;;;;4.47;2.72;;;;;;;21.93;54.78;96420.81;5038727;28;20104;-34
2023/06/01 04:52:49;;;;;;;2.97;2.60;;;;;;;21.94;54.94;96417.53;5040792;28;20048;-34
2023/06/01 04:55:16;;;;;;;3.55;2.65;;;;;;;21.90;55.01;96421.78;5026341;28;20053;-34
2023/06/01 04:57:45;;;;;;;3.30;2.63;;;;;;;21.88;55.57;96423.06;5033657;28;20026;-34
2023/06/01 05:00:13;;;;;;;3.63;2.72;;;;;;;21.81;55.80;96429.09;5033571;28;20017;-34
2023/06/01 05:02:46;;;;;;;3.53;2.40;;;;;;;21.98;54.75;96437.38;5033383;28;20469;-34
2023/06/01 05:05:11;;;;;;;;;;;;;;;21.90;55.50;96427.31;5048124;28;20064;-34
2023/06/01 05:07:38;;;;;;;5.53;3.42;;;;;;;21.78;55.80;96432.09;5033520;28;19916;-34
2023/06/01 05:10:06;;;;;;;4.13;2.80;;;;;;;21.76;56.14;96427.06;5041226;28;20075;-34
2023/06/01 05:12:35;;;;;;;3.50;2.60;;;;;;;21.79;56.20;96431.59;5026298;28;20017;-34
2023/06/01 05:15:05;;;;;;;3.88;2.70;;;;;;;21.88;55.97;96436.84;5033525;28;20030;-34
2023/06/01 05:17:30;;;;;;;5.35;3.22;;;;;;;21.91;55.37;96431.59;5035546;28;20112;-34
2023/06/01 05:19:57;;;;;;;4.80;3.00;;;;;;;21.85;55.98;96437.88;5037925;28;20018;-34
2023/06/01 05:22:23;;;;;;;5.03;2.95;;;;;;;21.86;55.80;96439.38;5040590;28;20472;-34
2023/06/01 05:24:48;;;;;;;4.65;2.90;;;;;;;21.78;56.22;96437.59;5033228;28;20059;-34
2023/06/01 05:27:14;;;;;;;3.38;2.88;;;;;;;21.88;55.78;96441.66;5033135;28;20448;-34
2023/06/01 05:29:40;;;;;;;4.20;2.90;;;;;;;21.82;56.22;96436.13;5049111;28;20029;-34
2023/06/01 05:32:06;;;;;;;4.90;2.88;;;;;;;21.84;56.27;96438.38;5036724;28;20096;-34
2023/06/01 05:34:31;;;;;;;5.68;3.20;;;;;;;21.98;56.22;96436.63;5044342;28;20029;-35
2023/06/01 05:36:56;;;;;;;5.03;3.00;;;;;;;22.06;56.02;96448.69;5039919;28;20024;-34
2023/06/01 05:39:27;;;;;;;3.58;2.85;;;;;;;21.82;56.95;96435.34;5040525;28;20022;-34
2023/06/01 05:41:53;;;;;;;3.90;2.70;;;;;;;21.88;57.00;96444.41;5043858;28;20032;-34
2023/06/01 05:44:18;;;;;;;4.20;2.83;;;;;;;21.81;57.40;96445.66;5036794;28;20026;-35
2023/06/01 05:46:44;;;;;;;4.85;2.72;;;;;;;21.76;57.18;96446.38;5036788;28;20354;-34
2023/06/01 05:49:09;;;;;;;5.95;3.28;;;;;;;21.74;57.51;96448.91;5036752;28;20389;-34
2023/06/01 05:51:37;;;;;;;4.68;3.00;;;;;;;21.81;57.45;96448.41;5049753;28;20431;-34
2023/06/01 05:54:04;;;;;;;4.45;3.17;;;;;;;21.84;57.53;96455.69;5044100;28;20129;-34
2023/06/01 05:56:30;;;;;;;4.78;3.42;;;;;;;21.89;57.65;96451.41;5036532;28;20029;-34
2023/06/01 05:58:55;;;;;;;5.18;3.40;;;;;;;21.96;57.54;96452.94;5036755;28;20013;-34
2023/06/01 06:01:22;;;;;;;4.43;3.05;;;;;;;21.99;57.57;96449.22;5036505;28;20025;-34
2023/06/01 06:03:47;;;;;;;6.97;3.20;;;;;;;22.05;57.35;96452.72;5036432;28;20025;-34
2023/06/01 06:06:13;;;;;;;4.32;3.42;;;;;;;22.00;58.01;96445.94;5037746;28;20079;-34
2023/06/01 06:08:38;;;;;;;5.80;3.20;;;;;;;21.93;57.84;96435.38;5041615;28;20461;-34
2023/06/01 06:11:03;;;;;;;4.13;3.08;;;;;;;21.93;58.04;96446.41;5035816;28;20017;-34
2023/06/01 06:13:29;;;;;;;4.93;2.72;;;;;;;21.99;57.90;96451.97;5036404;28;20432;-34
2023/06/01 06:15:55;;;;;;;4.88;3.20;;;;;;;21.90;57.65;96455.69;5035935;28;20017;-34
2023/06/01 06:18:21;;;;;;;4.25;3.00;;;;;;;21.83;58.86;96448.66;5036331;28;20396;-34
2023/06/01 06:20:52;;;;;;;4.75;3.22;;;;;;;21.92;58.58;96452.44;5036066;28;20017;-34
2023/06/01 06:23:18;;;;;;;6.68;3.40;;;;;;;21.84;58.48;96452.19;5043568;28;20025;-34
2023/06/01 06:25:45;;;;;;;7.35;2.92;;;;;;;21.98;57.74;96458.72;5038838;28;20517;-34
2023/06/01 06:28:11;;;;;;;6.15;3.22;;;;;;;21.96;57.82;96452.94;5046189;28;20120;-34
2023/06/01 06:30:36;;;;;;;4.63;3.13;;;;;;;21.92;58.01;96455.19;5033348;28;20113;-34
2023/06/01 06:33:01;;;;;;;4.97;3.75;;;;;;;21.94;58.07;96458.22;5039653;28;20032;-34
2023/06/01 06:35:27;;;;;;;6.30;2.90;;;;;;;21.95;58.11;96459.72;5036923;28;20057;-34
2023/06/01 06:37:53;;;;;;;3.92;3.30;;;;;;;21.94;58.36;96461.72;5035928;28;20021;-35
2023/06/01 06:40:19;;;;;;;5.18;2.88;;;;;;;21.86;58.41;96464.22;5042110;28;20017;-34
2023/06/01 06:42:44;;;;;;;7.88;3.15;;;;;;;21.96;58.23;96459.22;5042205;28;20025;-34
2023/06/01 06:45:10;;;;;;;4.53;2.90;;;;;;;22.00;58.62;96464.53;5035751;28;20487;-34
2023/06/01 06:47:36;;;;;;;4.35;2.75;;;;;;;22.01;57.54;96469.53;5035540;28;20075;-34
2023/06/01 06:50:02;;;;;;;5.03;2.95;;;;;;;22.10;57.56;96476.81;5035807;28;20484;-34
2023/06/01 06:52:27;;;;;;;4.43;2.78;;;;;;;22.13;57.58;96465.50;5042289;28;20147;-34
2023/06/01 06:54:53;;;;;;;5.15;2.90;;;;;;;22.13;57.44;96464.78;5035743;28;20057;-34
2023/06/01 06:57:18;;;;;;;4.43;2.90;;;;;;;22.13;57.09;96471.03;5041911;28;20023;-34
2023/06/01 06:59:45;;;;;;;3.40;2.58;;;;;;;22.13;56.96;96462.75;5042320;28;20071;-34
2023/06/01 07:02:10;;;;;;;5.97;3.00;;;;;;;22.17;56.49;96468.78;5035211;28;20053;-34
2023/06/01 07:04:36;;;;;;;5.00;2.65;;;;;;;22.02;57.42;96467.53;5035338;28;20461;-34
2023/06/01 07:07:04;;;;;;;4.97;2.90;;;;;;;22.19;56.46;96471.03;5035281;28;20413;-35
2023/06/01 07:09:29;;;;;;;4.15;2.65;;;;;;;22.23;56.97;96470.81;5038438;28;20483;-35
2023/06/01 07:11:55;;;;;;;3.63;2.67;;;;;;;22.28;56.78;96468.03;5045013;28;20017;-34
2023/06/01 07:14:20;;;;;;;4.03;2.63;;;;;;;22.35;56.22;96475.81;5036005;28;20029;-34
2023/06/01 07:16:46;;;;;;;5.00;2.85;;;;;;;22.37;56.01;96473.31;5040958;28;20017;-34
2023/06/01 07:19:12;;;;;;;5.70;3.00;;;;;;;22.30;55.85;96471.03;5034691;28;20405;-35
2023/06/01 07:21:38;;;;;;;5.07;2.97;;;;;;;22.42;55.65;96469.78;5035203;28;20029;-34
2023/06/01 07:24:04;;;;;;;3.45;2.80;;;;;;;22.37;56.00;96469.78;5034606;28;20029;-34
2023/06/01 07:26:30;;;;;;;4.60;3.05;;;;;;;22.40;55.79;96469.53;5035043;28;20028;-34
2023/06/01 07:28:56;;;;;;;3.47;2.58;;;;;;;22.35;55.65;96467.53;5034798;28;20025;-34
2023/06/01 07:31:22;;;;;;;5.63;2.42;;;;;;;22.45;56.31;96468.78;5041117;28;20483;-34
2023/06/01 07:33:48;;;;;;;5.57;2.80;;;;;;;22.42;55.90;96477.31;5046845;28;20023;-34
2023/06/01 07:36:14;;;;;;;6.07;3.08;;;;;;;22.39;56.28;96472.78;5034726;28;20151;-34
2023/06/01 07:38:40;;;;;;;3.75;2.75;;;;;;;22.39;56.10;96481.81;5034897;28;20052;-35
2023/06/01 07:41:06;;;;;;;3.50;2.58;;;;;;;22.33;56.11;96469.28;5034562;28;20048;-34
2023/06/01 07:43:31;;;;;;;5.35;3.10;;;;;;;22.45;55.93;96465.25;5034404;28;20083;-34
2023/06/01 07:45:57;;;;;;;3.38;2.70;;;;;;;22.37;55.87;96470.56;5042195;28;20393;-34
2023/06/01 07:48:23;;;;;;;4.85;2.47;;;;;;;22.52;56.14;96465.50;5041494;28;20025;-34
2023/06/01 07:50:50;;;;;;;3.13;2.55;;;;;;;22.45;55.89;96466.00;5034766;28;20057;-34
2023/06/01 07:53:17;;;;;;;4.65;3.00;;;;;;;22.53;56.11;96457.94;5040923;28;20036;-35
2023/06/01 07:55:43;;;;;;;4.65;2.70;;;;;;;22.56;55.80;96456.94;5034477;28;20057;-34
2023/06/01 07:58:09;;;;;;;6.07;2.90;;;;;;;22.61;56.20;96458.22;5034637;28;20483;-34
2023/06/01 08:00:35;;;;;;;4.97;3.17;;;;;;;22.61;55.77;96452.69;5039625;28;20012;-34
2023/06/01 08:03:05;;;;;;;7.05;2.88;;;;;;;22.62;55.61;96460.47;5036229;28;20013;-34
2023/06/01 08:05:31;;;;;;;4.60;3.05;;;;;;;22.60;56.29;96453.94;5040596;28;20022;-35
2023/06/01 08:07:57;;;;;;;4.75;3.30;;;;;;;22.57;56.72;96456.44;5033695;28;20020;-35
2023/06/01 08:10:22;;;;;;;3.95;2.75;;;;;;;22.58;56.58;96452.44;5048623;28;20023;-35
2023/06/01 08:12:49;;;;;;;3.20;2.58;;;;;;;22.69;56.30;96453.66;5033729;28;20024;-34
2023/06/01 08:15:15;;;;;;;4.82;3.30;;;;;;;22.61;56.50;96450.66;5034431;28;20106;-34
2023/06/01 08:17:41;;;;;;;4.15;3.25;;;;;;;22.62;56.39;96454.19;5041131;28;20032;-34
2023/06/01 08:20:13;;;;;;;11.80;3.95;;;;;;;22.71;56.21;96456.66;5040659;28;20104;-34
2023/06/01 08:22:40;;;;;;;13.27;3.92;;;;;;;22.71;56.55;96462.19;5033982;28;20071;-34
2023/06/01 08:25:06;;;;;;;10.68;3.85;;;;;;;22.85;55.85;96455.66;5033883;28;20017;-34
2023/06/01 08:27:31;;;;;;;18.90;4.00;;;;;;;22.89;55.99;96467.94;5032391;28;20095;-35
2023/06/01 08:29:58;;;;;;;10.60;3.58;;;;;;;22.84;57.18;96462.44;5029790;28;20022;-34
2023/06/01 08:32:23;;;;;;;10.40;3.67;;;;;;;22.98;56.21;96466.19;5033713;28;20029;-34
2023/06/01 08:34:49;;;;;;;6.32;3.58;;;;;;;23.00;56.27;96464.38;5034299;28;20035;-34
2023/06/01 08:37:15;;;;;;;6.00;3.20;;;;;;;23.11;55.56;96458.84;5040889;28;20053;-34
2023/06/01 08:39:41;;;;;;;8.20;3.22;;;;;;;22.93;56.42;96471.22;5033725;28;20384;-34
2023/06/01 08:42:09;;;;;;;15.77;3.95;;;;;;;23.06;56.29;96467.91;5033337;28;20429;-34
2023/06/01 08:44:44;;;;;;;9.40;3.47;;;;;;;22.94;56.69;96466.44;5033920;28;20022;-35
2023/06/01 08:47:09;;;;;;;8.20;3.55;;;;;;;22.98;56.45;96463.41;5026640;28;20079;-35
2023/06/01 08:49:36;;;;;;;10.15;3.88;;;;;;;22.89;57.25;96454.13;5040105;28;20025;-34
2023/06/01 08:52:08;;;;;;;5.60;3.42;;;;;;;22.97;56.88;96462.66;5041154;28;20025;-34
2023/06/01 08:54:35;;;;;;;9.25;3.25;;;;;;;23.05;56.47;96463.63;5033281;28;20375;-34
2023/06/01 08:57:03;;;;;;;5.18;3.40;;;;;;;22.87;56.60;96458.69;5033828;28;20531;-34
2023/06/01 08:59:30;;;;;;;5.28;3.35;;;;;;;22.97;56.34;96464.66;5033495;28;20446;-34
2023/06/01 09:01:57;;;;;;;4.60;3.22;;;;;;;22.93;56.26;96456.63;5033274;28;20060;-34
2023/06/01 09:04:23;;;;;;;4.55;3.10;;;;;;;22.99;56.68;96459.38;5027352;28;20033;-34
2023/06/01 09:06:48;;;;;;;5.20;3.30;;;;;;;22.93;56.83;96454.63;5044357;28;20025;-35
2023/06/01 09:09:14;;;;;;;5.68;3.35;;;;;;;23.04;56.26;96455.84;5037242;28;20052;-34
2023/06/01 09:11:39;;;;;;;5.25;3.22;;;;;;;23.01;56.46;96462.38;5037268;28;20029;-34
2023/06/01 09:14:22;;;;;;;4.13;3.10;;;;;;;22.89;56.65;96461.66;5036702;28;20377;-34
2023/06/01 09:16:48;;;;;;;4.13;3.00;;;;;;;22.91;56.70;96461.91;5031979;28;20024;-34
2023/06/01 09:19:14;;;;;;;6.72;3.20;;;;;;;23.01;55.91;96451.31;5044323;28;20061;-34
2023/06/01 09:21:40;;;;;;;10.38;3.72;;;;;;;23.02;56.40;96461.88;5039793;28;20052;-34
2023/06/01 09:24:22;;;;;;;14.18;4.15;;;;;;;23.02;57.35;96455.59;5040870;28;20043;-36
2023/06/01 09:26:48;;;;;;;8.48;4.07;;;;;;;23.08;57.41;96459.84;5029388;28;20043;-34
2023/06/01 09:29:14;;;;;;;8.20;3.10;;;;;;;23.04;58.71;96456.59;5037040;28;20029;-34
2023/06/01 09:31:42;;;;;;;8.10;3.60;;;;;;;23.09;57.64;96458.59;5037239;28;20037;-35
2023/06/01 09:34:16;;;;;;;6.75;3.50;;;;;;;23.09;57.70;96457.84;5043403;28;20025;-34
2023/06/01 09:36:42;;;;;;;5.28;3.30;;;;;;;23.11;57.34;96449.78;5044084;28;20079;-36
2023/06/01 09:39:11;;;;;;;4.68;3.30;;;;;;;23.21;57.00;96451.75;5043741;28;20022;-34
2023/06/01 09:41:58;;;;;;;16.45;3.53;;;;;;;23.18;58.07;96452.75;5036356;28;20112;-34
2023/06/01 09:44:28;;;;;;;17.27;3.85;;;;;;;23.15;58.56;96456.53;5032275;28;20499;-34
2023/06/01 09:47:01;;;;;;;16.13;4.60;;;;;;;23.14;59.34;96454.28;5036885;28;20428;-34
2023/06/01 09:49:28;;;;;;;15.73;4.00;;;;;;;23.13;58.34;96459.06;5036674;28;20032;-34
2023/06/01 09:52:14;;;;;;;13.63;3.42;;;;;;;23.15;58.91;96458.56;5044063;28;20020;-35
2023/06/01 09:54:43;;;;;;;6.88;3.78;;;;;;;23.16;58.90;96458.06;5043228;28;20053;-34
2023/06/01 09:57:09;;;;;;;9.27;3.42;;;;;;;23.05;58.35;96454.56;5036577;28;20631;-34
2023/06/01 09:59:45;;;;;;;4.75;3.28;;;;;;;23.16;57.53;96455.28;5041340;28;20464;-34
2023/06/01 10:02:16;;;;;;;5.13;3.05;;;;;;;23.22;57.32;96458.78;5036784;28;20026;-34
2023/06/01 10:04:47;;;;;;;6.07;3.10;;;;;;;23.16;57.41;96460.06;5036426;28;20053;-35
2023/06/01 10:07:13;;;;;;;5.35;3.60;;;;;;;23.11;57.82;96471.91;5037668;28;20426;-34
2023/06/01 10:09:41;;;;;;;4.47;3.40;;;;;;;23.20;57.28;96466.09;5046733;28;20100;-34
2023/06/01 10:12:08;;;;;;;6.35;3.72;;;;;;;23.36;56.85;96470.06;5038493;28;20029;-35
2023/06/01 10:14:37;;;;;;;5.57;4.15;;;;;;;23.15;57.42;96467.59;5032215;28;20025;-34
2023/06/01 10:17:03;;;;;;;6.30;3.40;;;;;;;23.46;56.95;96466.47;5039172;28;20021;-35
2023/06/01 10:19:29;;;;;;;5.60;4.25;;;;;;;23.40;56.58;96462.97;5036359;28;20374;-34
2023/06/01 10:21:57;;;;;;;5.82;3.80;;;;;;;23.22;56.91;96472.63;5039981;28;20033;-35
2023/06/01 10:24:23;;;;;;;6.72;3.90;;;;;;;23.37;56.59;96466.03;5041756;28;21636;-34
2023/06/01 10:26:58;;;;;;;6.03;3.95;;;;;;;23.45;56.26;96466.97;5035768;28;20024;-34
2023/06/01 10:29:24;;;;;;;6.82;3.88;;;;;;;23.37;56.80;96460.50;5035796;28;20025;-34
2023/06/01 10:31:50;;;;;;;7.18;4.30;;;;;;;23.37;56.50;96468.78;5036116;28;20024;-34
2023/06/01 10:34:37;;;;;;;5.20;3.80;;;;;;;23.44;56.39;96459.94;5042498;28;20030;-34
2023/06/01 10:37:03;;;;;;;8.20;4.18;;;;;;;23.27;57.42;96455.22;5033309;28;20028;-34
2023/06/01 10:39:31;;;;;;;9.38;3.97;;;;;;;23.25;57.26;96448.69;5036959;28;20026;-34
2023/06/01 10:42:14;;;;;;;6.07;4.45;;;;;;;23.24;57.44;96453.47;5035900;28;20047;-34
2023/06/01 10:44:39;;;;;;;6.28;4.30;;;;;;;23.29;56.44;96452.72;5035706;28;20481;-34
2023/06/01 10:47:11;;;;;;;6.10;3.70;;;;;;;23.30;56.23;96445.16;5035423;28;20053;-34
2023/06/01 10:49:49;;;;;;;4.85;4.00;;;;;;;23.36;55.01;96448.66;5035592;28;20199;-34
2023/06/01 10:52:27;;;;;;;6.50;4.28;;;;;;;23.28;54.97;96442.91;5035088;28;20025;-34
2023/06/01 10:54:54;;;;;;;6.15;4.00;;;;;;;23.31;53.83;96443.16;5044318;28;20048;-34
2023/06/01 10:57:21;;;;;;;7.13;4.20;;;;;;;23.24;53.46;96441.69;5042626;28;20035;-34
2023/06/01 11:00:16;;;;;;;6.07;3.63;;;;;;;23.27;52.49;96448.94;5034929;28;20112;-34
2023/06/01 11:03:01;;;;;;;6.55;3.35;;;;;;;23.42;52.01;96443.09;5030681;28;20065;-34
2023/06/01 11:05:38;;;;;;;3.70;3.00;;;;;;;23.33;51.42;96438.63;5028729;28;20492;-35
2023/06/01 11:08:06;;;;;;;6.18;3.63;;;;;;;23.37;51.59;96433.53;5035379;28;20500;-34
2023/06/01 11:10:50;;;;;;;6.07;3.67;;;;;;;23.12;50.81;96429.88;5034822;28;20025;-34
2023/06/01 11:13:19;;;;;;;4.85;3.13;;;;;;;23.32;51.34;96428.06;5042580;28;20032;-34
2023/06/01 11:16:10;;;;;;;4.72;3.20;;;;;;;23.43;51.01;96425.22;5042099;28;20052;-35
2023/06/01 11:19:04;;;;;;;5.22;3.65;;;;;;;23.20;51.00;96422.56;5041982;28;20017;-34
2023/06/01 11:21:46;;;;;;;6.88;4.47;;;;;;;23.31;50.13;96421.75;5035028;28;20477;-35
2023/06/01 11:24:16;;;;;;;5.85;4.13;;;;;;;23.36;49.60;96423.00;5035132;28;20037;-34
2023/06/01 11:26:44;;;;;;;9.07;4.78;;;;;;;23.33;49.25;96418.50;5048552;28;20119;-34
2023/06/01 11:29:21;;;;;;;6.65;4.82;;;;;;;23.39;49.55;96428.25;5040512;28;20074;-35
2023/06/01 11:31:53;;;;;;;7.55;4.57;;;;;;;23.45;50.38;96422.69;5041934;28;20035;-34
2023/06/01 11:34:28;;;;;;;11.20;4.55;;;;;;;23.37;50.96;96421.75;5042013;28;20112;-34
2023/06/01 11:36:55;;;;;;;5.40;4.10;;;;;;;23.54;50.69;96425.19;5042718;28;20376;-34
2023/06/01 11:39:27;;;;;;;6.35;4.15;;;;;;;23.42;51.10;96427.22;5034671;28;20032;-34